This is the latest recevied weather packets stored in our database for station/object KE5QKR. If no packets are shown the sender has not sent any weather packets the latest 10 day(s).
| Time | Temp. | Humidity | Pressure | Rain* | Wind** | Luminosity | Snow |
|---|---|---|---|---|---|---|---|
| 1777512861 | 18.89° C | 99% | 1012.2 hPa | 3.05 mm | - | 0 W/m² | - |
| 1777512558 | 18.89° C | 99% | 1012.3 hPa | 3.05 mm | - | 0 W/m² | - |
| 1777512255 | 18.89° C | 99% | 1012.3 hPa | 1.27 mm | - | 0 W/m² | - |
| 1777511952 | 18.89° C | 99% | 1012.6 hPa | 0 mm | - | 0 W/m² | - |
| 1777511650 | 18.89° C | 99% | 1012.5 hPa | 1.78 mm | - | 0 W/m² | - |
| 1777511348 | 18.89° C | 99% | 1012.1 hPa | 6.1 mm | - | 0 W/m² | - |
| 1777511042 | 18.33° C | 99% | 1012.1 hPa | 8.89 mm | - | 0 W/m² | - |
| 1777510739 | 18.33° C | 99% | 1012 hPa | 12.7 mm | - | 0 W/m² | - |
| 1777510436 | 18.33° C | 99% | 1012.1 hPa | 14.99 mm | - | 0 W/m² | - |
| 1777510132 | 18.33° C | 99% | 1012.6 hPa | 34.8 mm | - | 0 W/m² | - |
| 1777509829 | 18.33° C | 98% | 1012.8 hPa | 42.67 mm | - | 0 W/m² | - |
| 1777509524 | 21.11° C | 93% | 1013.6 hPa | 14.99 mm | - | 0 W/m² | - |
| 1777509222 | 22.22° C | 87% | 1013.1 hPa | 0 mm | - | 0 W/m² | - |
| 1777508919 | 22.78° C | 86% | 1010.8 hPa | 0 mm | - | 0 W/m² | - |
| 1777508615 | 23.33° C | 84% | 1010 hPa | 0 mm | - | 0 W/m² | - |
| 1777508313 | 25° C | 85% | 1009.6 hPa | 0 mm | - | 0 W/m² | - |
| 1777508010 | 24.44° C | 87% | 1009.3 hPa | 0 mm | - | 0 W/m² | - |
| 1777507706 | 24.44° C | 88% | 1009.2 hPa | 0 mm | - | 1 W/m² | - |
| 1777507404 | 25° C | 87% | 1009.2 hPa | 0 mm | - | 2 W/m² | - |
| 1777507101 | 25° C | 87% | 1009.3 hPa | 0 mm | - | 2 W/m² | - |
| 1777506798 | 25° C | 87% | 1009.3 hPa | 0 mm | - | 2 W/m² | - |
| 1777506495 | 25° C | 87% | 1009.7 hPa | 0 mm | - | 2 W/m² | - |
| 1777506190 | 25° C | 86% | 1009.7 hPa | 0 mm | - | 3 W/m² | - |
| 1777505887 | 25° C | 86% | 1009.7 hPa | 0 mm | - | 3 W/m² | - |
| 1777505583 | 25° C | 85% | 1010.1 hPa | 0 mm | - | 3 W/m² | - |
* Rain latest hour (hover to see other rain measurements)
** Current wind speed in m/s (hover to see current wind gust speed)